Campeche Bay — P3ZF9 — position and weather

sailwx.info

Track history (hours):
 
Tides and Currents Weather Stations Pressure Air Temp Water Temp Dewpoint Dewpoint Depression Visibility Wind Speed Wind Dir Waves Ship Positions

Campeche Bay

Last reported at 2015-Apr-23 06:09 UTC. Time now 2015-Apr-28 02:05 UTC.
Position N 29°27' W 086°04'.

Length 90 m; draft 4.1 m.

Type: Cargo ship. MMSI: 209641000.

Date/timePositionNaut miles runAvg speedWind from/ knotsBaromVisibWave heightAir tempDewpointWater temp
2015-Apr-23 06:09N 29°27' W 086°04'  
2015-Apr-15 03:33N 29°31' W 094°53'9 9.2
2015-Apr-15 02:33N 29°39' W 094°58'3 2.7
2015-Apr-15 01:33N 29°41' W 094°60'0 0.0
2015-Apr-15 00:33N 29°41' W 094°60'0 0.0
2015-Apr-14 23:33N 29°41' W 094°60'0 0.0
2015-Apr-14 22:30N 29°41' W 094°60'0 0.0
2015-Apr-14 21:33N 29°41' W 094°60'0 0.0
2015-Apr-14 20:33N 29°41' W 094°60'0 0.0
2015-Apr-14 19:33N 29°41' W 094°60'0 0.0
2015-Apr-14 18:33N 29°41' W 094°60'8 7.6
2015-Apr-14 17:33N 29°34' W 094°56'10 9.9
2015-Apr-14 16:33N 29°26' W 094°50'  
Track history (hours):
 
Tides and Currents Weather Stations Pressure Air Temp Water Temp Dewpoint Dewpoint Depression Visibility Wind Speed Wind Dir Waves Ship Positions

Campeche Bay

Last reported at 2015-Apr-23 06:09 UTC. Time now 2015-Apr-28 02:05 UTC.
Position N 29°27' W 086°04'.

Length 90 m; draft 4.1 m.

Type: Cargo ship. MMSI: 209641000.

Date/timePositionNaut miles runAvg speedWind from/ knotsBaromVisibWave heightAir tempDewpointWater temp
2015-Apr-23 06:09N 29°27' W 086°04'  
2015-Apr-15 03:33N 29°31' W 094°53'9 9.2
2015-Apr-15 02:33N 29°39' W 094°58'3 2.7
2015-Apr-15 01:33N 29°41' W 094°60'0 0.0
2015-Apr-15 00:33N 29°41' W 094°60'0 0.0
2015-Apr-14 23:33N 29°41' W 094°60'0 0.0
2015-Apr-14 22:30N 29°41' W 094°60'0 0.0
2015-Apr-14 21:33N 29°41' W 094°60'0 0.0
2015-Apr-14 20:33N 29°41' W 094°60'0 0.0
2015-Apr-14 19:33N 29°41' W 094°60'0 0.0
2015-Apr-14 18:33N 29°41' W 094°60'8 7.6
2015-Apr-14 17:33N 29°34' W 094°56'10 9.9
2015-Apr-14 16:33N 29°26' W 094°50'  

Dump ship's entire track history